createdAt,value
2022-11-17T00:00:28.323Z,84.19
2022-11-17T00:02:54.867Z,83.99
2022-11-17T00:05:21.697Z,84.69
2022-11-17T00:07:49.963Z,86.47
2022-11-17T00:10:17.731Z,86.29
2022-11-17T00:13:03.222Z,85.42
2022-11-17T00:15:29.990Z,86.53
2022-11-17T00:18:14.882Z,83.84
2022-11-17T00:21:00.066Z,85.45
2022-11-17T00:23:47.038Z,88.35
2022-11-17T00:26:15.877Z,86.97
2022-11-17T00:28:42.823Z,85.90
2022-11-17T00:31:33.337Z,86.16
2022-11-17T00:34:05.620Z,86.96
2022-11-17T00:36:41.496Z,86.95
2022-11-17T00:39:09.387Z,87.87
2022-11-17T00:41:36.446Z,88.70
2022-11-17T00:44:03.075Z,87.76
2022-11-17T00:46:29.858Z,88.13
2022-11-17T00:48:56.350Z,88.86
2022-11-17T00:51:22.915Z,88.59
2022-11-17T00:53:49.499Z,88.62
2022-11-17T00:56:16.491Z,90.82
2022-11-17T00:58:43.798Z,90.62
2022-11-17T01:01:11.033Z,89.76
2022-11-17T01:03:38.065Z,89.96
2022-11-17T01:06:10.187Z,91.06
2022-11-17T01:08:37.168Z,90.01
2022-11-17T01:11:11.486Z,89.15
2022-11-17T01:13:40.093Z,90.01
2022-11-17T01:16:10.771Z,91.15
2022-11-17T01:18:38.221Z,90.30
2022-11-17T01:21:12.176Z,90.68
2022-11-17T01:23:40.104Z,90.55
2022-11-17T01:26:15.755Z,91.11
2022-11-17T01:28:43.319Z,91.26
2022-11-17T01:31:16.530Z,90.73
2022-11-17T01:33:43.373Z,90.48
2022-11-17T01:36:22.585Z,90.38
2022-11-17T01:38:49.411Z,89.85
2022-11-17T01:41:22.526Z,90.17
2022-11-17T01:43:50.550Z,89.39
2022-11-17T01:46:37.141Z,90.29
2022-11-17T01:49:11.719Z,90.20
2022-11-17T01:51:44.130Z,90.11
2022-11-17T01:54:13.299Z,89.24
2022-11-17T01:56:44.990Z,90.34
2022-11-17T01:59:22.149Z,89.35
2022-11-17T02:01:56.217Z,89.45
2022-11-17T02:04:26.464Z,89.38
2022-11-17T02:07:00.628Z,89.68
2022-11-17T02:09:27.814Z,90.69
2022-11-17T02:11:58.704Z,90.08
2022-11-17T02:14:25.383Z,89.99
2022-11-17T02:16:52.009Z,90.55
2022-11-17T02:19:21.164Z,90.08
2022-11-17T02:22:23.303Z,90.53
2022-11-17T02:25:24.308Z,90.22
2022-11-17T02:28:10.370Z,90.16
2022-11-17T02:30:46.101Z,91.32
2022-11-17T02:33:25.240Z,90.61
2022-11-17T02:36:00.207Z,90.12
2022-11-17T02:38:41.364Z,90.53
2022-11-17T02:41:24.386Z,91.23
2022-11-17T02:44:03.964Z,90.06
2022-11-17T02:46:37.531Z,90.24
2022-11-17T02:49:11.514Z,90.57
2022-11-17T02:51:40.699Z,90.20
2022-11-17T02:54:08.346Z,89.84
2022-11-17T02:56:40.767Z,90.44
2022-11-17T02:59:07.457Z,91.04
2022-11-17T03:01:52.343Z,90.81
2022-11-17T03:04:36.035Z,90.56
2022-11-17T03:07:17.010Z,91.11
2022-11-17T03:09:55.126Z,90.90
2022-11-17T03:12:32.504Z,90.68
2022-11-17T03:15:13.658Z,90.28
2022-11-17T03:17:50.696Z,90.45
2022-11-17T03:20:25.069Z,90.45
2022-11-17T03:23:07.837Z,90.01
2022-11-17T03:25:37.558Z,90.35
2022-11-17T03:28:09.573Z,90.48
2022-11-17T03:30:41.360Z,90.08
2022-11-17T03:33:15.949Z,90.85
2022-11-17T03:35:50.909Z,90.83
2022-11-17T03:38:20.218Z,91.15
2022-11-17T03:40:50.433Z,89.90
2022-11-17T03:43:20.320Z,90.52
2022-11-17T03:45:52.189Z,89.89
2022-11-17T03:48:41.313Z,90.95
2022-11-17T03:51:21.885Z,91.19
2022-11-17T03:53:49.707Z,89.75
2022-11-17T03:56:31.395Z,89.94
2022-11-17T03:59:01.810Z,90.26
2022-11-17T04:01:30.753Z,90.70
2022-11-17T04:03:57.233Z,90.40
2022-11-17T04:06:23.854Z,89.95
2022-11-17T04:08:50.370Z,89.79
2022-11-17T04:11:35.480Z,90.33
2022-11-17T04:14:20.510Z,90.05
2022-11-17T04:16:47.112Z,89.54
2022-11-17T04:19:13.674Z,89.60
2022-11-17T04:21:40.461Z,89.47
2022-11-17T04:24:07.423Z,89.42
2022-11-17T04:26:52.241Z,89.62
2022-11-17T04:29:18.939Z,89.53
2022-11-17T04:31:45.427Z,89.17
2022-11-17T04:34:11.885Z,89.78
2022-11-17T04:36:46.327Z,89.17
2022-11-17T04:39:14.474Z,89.55
2022-11-17T04:41:53.878Z,89.67
2022-11-17T04:44:23.371Z,89.48
2022-11-17T04:46:50.138Z,88.82
2022-11-17T04:49:18.820Z,89.42
2022-11-17T04:51:46.184Z,89.17
2022-11-17T04:54:14.397Z,89.38
2022-11-17T04:56:40.999Z,88.87
2022-11-17T04:59:08.391Z,89.18
2022-11-17T05:01:34.853Z,88.98
2022-11-17T05:04:07.466Z,89.36
2022-11-17T05:06:36.775Z,88.97
2022-11-17T05:09:08.389Z,89.13
2022-11-17T05:11:53.943Z,89.35
2022-11-17T05:14:22.273Z,89.27
2022-11-17T05:17:10.524Z,89.37
2022-11-17T05:19:42.074Z,89.52
2022-11-17T05:22:27.950Z,89.40
2022-11-17T05:24:54.818Z,89.08
2022-11-17T05:27:22.565Z,89.07
2022-11-17T05:29:49.214Z,89.65
2022-11-17T05:32:16.559Z,89.50
2022-11-17T05:34:43.102Z,89.52
2022-11-17T05:37:09.837Z,89.74
2022-11-17T05:39:36.347Z,89.29
2022-11-17T05:42:04.262Z,89.47
2022-11-17T05:44:30.906Z,89.64
2022-11-17T05:46:57.406Z,90.12
2022-11-17T05:49:24.168Z,90.54
2022-11-17T05:51:52.926Z,90.99
2022-11-17T05:54:20.255Z,90.81
2022-11-17T05:56:58.663Z,91.38
2022-11-17T05:59:34.060Z,90.23
2022-11-17T06:02:12.799Z,91.50
2022-11-17T06:04:39.582Z,90.48
2022-11-17T06:07:06.765Z,90.39
2022-11-17T06:09:36.791Z,90.01
2022-11-17T06:12:06.191Z,91.20
2022-11-17T06:14:34.293Z,91.44
2022-11-17T06:17:05.238Z,91.18
2022-11-17T06:19:38.464Z,90.95
2022-11-17T06:22:12.107Z,91.51
2022-11-17T06:24:40.527Z,90.90
2022-11-17T06:27:07.174Z,90.40
2022-11-17T06:29:36.108Z,92.01
2022-11-17T06:32:04.787Z,91.09
2022-11-17T06:34:32.927Z,90.73
2022-11-17T06:36:59.523Z,91.00
2022-11-17T06:39:26.037Z,91.98
2022-11-17T06:41:52.511Z,91.00
2022-11-17T06:44:19.099Z,90.75
2022-11-17T06:46:48.966Z,91.13
2022-11-17T06:49:15.970Z,90.54
2022-11-17T06:51:45.360Z,91.28
2022-11-17T06:54:14.657Z,90.26
2022-11-17T06:56:42.197Z,90.60
2022-11-17T06:59:08.981Z,90.96
2022-11-17T07:01:36.616Z,91.41
2022-11-17T07:04:03.683Z,91.28
2022-11-17T07:06:30.177Z,91.99
2022-11-17T07:08:56.653Z,91.32
2022-11-17T07:11:23.236Z,90.97
2022-11-17T07:13:49.805Z,90.74
2022-11-17T07:16:23.437Z,91.43
2022-11-17T07:18:50.826Z,91.15
2022-11-17T07:21:18.210Z,91.60
2022-11-17T07:23:45.914Z,90.60
2022-11-17T07:26:13.040Z,91.35
2022-11-17T07:28:39.644Z,91.10
2022-11-17T07:31:08.227Z,91.61
2022-11-17T07:33:35.219Z,91.13
2022-11-17T07:36:03.478Z,92.18
2022-11-17T07:38:36.802Z,91.87
2022-11-17T07:41:04.576Z,91.33
2022-11-17T07:43:31.531Z,91.78
2022-11-17T07:45:58.103Z,91.35
2022-11-17T07:48:24.692Z,91.85
2022-11-17T07:50:51.434Z,91.33
2022-11-17T07:53:18.120Z,91.26
2022-11-17T07:55:44.960Z,91.38
2022-11-17T07:58:11.722Z,91.28
2022-11-17T08:00:38.814Z,91.84
2022-11-17T08:03:05.518Z,90.45
2022-11-17T08:05:41.686Z,91.15
2022-11-17T08:08:10.516Z,89.96
2022-11-17T08:10:37.161Z,91.06
2022-11-17T08:13:03.956Z,91.19
2022-11-17T08:15:31.199Z,88.91
2022-11-17T08:17:59.840Z,89.99
2022-11-17T08:20:27.947Z,89.59
2022-11-17T08:22:55.184Z,89.00
2022-11-17T08:25:24.194Z,89.61
2022-11-17T08:27:54.068Z,90.09
2022-11-17T08:30:20.833Z,90.59
2022-11-17T08:32:52.409Z,91.02
2022-11-17T08:35:20.822Z,90.84
2022-11-17T08:37:47.472Z,90.97
2022-11-17T08:40:15.281Z,90.58
2022-11-17T08:42:41.963Z,90.10
2022-11-17T08:45:10.036Z,90.46
2022-11-17T08:47:37.856Z,90.52
2022-11-17T08:50:08.367Z,90.50
2022-11-17T08:52:35.095Z,88.97
2022-11-17T08:55:02.442Z,90.45
2022-11-17T08:57:32.748Z,89.77
2022-11-17T08:59:59.671Z,87.54
2022-11-17T09:02:26.382Z,89.85
2022-11-17T09:04:53.008Z,87.73
2022-11-17T09:07:19.764Z,88.96
2022-11-17T09:09:46.492Z,89.83
2022-11-17T09:12:13.295Z,89.53
2022-11-17T09:14:40.063Z,89.64
2022-11-17T09:17:06.913Z,89.29
2022-11-17T09:19:33.634Z,87.83
2022-11-17T09:22:00.211Z,88.91
2022-11-17T09:24:26.844Z,88.54
2022-11-17T09:26:54.941Z,87.91
2022-11-17T09:29:21.961Z,88.97
2022-11-17T09:31:48.717Z,88.86
2022-11-17T09:34:16.360Z,88.43
2022-11-17T09:36:43.028Z,88.15
2022-11-17T09:39:10.088Z,88.30
2022-11-17T09:41:45.618Z,87.54
2022-11-17T09:44:36.628Z,88.77
2022-11-17T09:47:21.946Z,86.78
2022-11-17T09:50:23.054Z,88.50
2022-11-17T09:52:58.578Z,86.79
2022-11-17T09:55:37.138Z,88.70
2022-11-17T09:58:15.443Z,85.93
2022-11-17T10:00:47.552Z,87.95
2022-11-17T10:03:20.206Z,88.15
2022-11-17T10:05:48.506Z,88.33
2022-11-17T10:08:20.377Z,88.73
2022-11-17T10:10:50.638Z,88.01
2022-11-17T10:13:40.732Z,85.60
2022-11-17T10:16:14.311Z,86.03
2022-11-17T10:18:41.032Z,88.13
2022-11-17T10:21:09.381Z,87.52
2022-11-17T10:23:45.852Z,87.50
2022-11-17T10:26:17.569Z,87.68
2022-11-17T10:28:44.167Z,88.32
2022-11-17T10:31:15.104Z,87.27
2022-11-17T10:33:45.371Z,88.21
2022-11-17T10:36:26.741Z,87.86
2022-11-17T10:38:54.950Z,87.17
2022-11-17T10:41:25.672Z,87.54
2022-11-17T10:44:05.642Z,85.80
2022-11-17T10:46:43.197Z,87.37
2022-11-17T10:49:25.476Z,86.77
2022-11-17T10:52:13.536Z,86.75
2022-11-17T10:54:40.180Z,86.54
2022-11-17T10:57:18.337Z,86.79
2022-11-17T10:59:52.098Z,86.83
2022-11-17T11:02:35.464Z,87.42
2022-11-17T11:05:11.802Z,87.56
2022-11-17T11:07:38.876Z,85.64
2022-11-17T11:10:24.943Z,86.84
2022-11-17T11:13:01.952Z,87.17
2022-11-17T11:15:33.221Z,86.71
2022-11-17T11:17:59.813Z,86.72
2022-11-17T11:20:45.857Z,86.75
2022-11-17T11:23:29.071Z,85.35
2022-11-17T11:26:20.584Z,84.11
2022-11-17T11:29:28.704Z,86.63
2022-11-17T11:32:33.923Z,86.72
2022-11-17T11:35:31.781Z,86.63
2022-11-17T11:38:35.093Z,85.52
2022-11-17T11:41:35.551Z,86.07
2022-11-17T11:44:02.001Z,86.44
2022-11-17T11:46:46.878Z,86.71
2022-11-17T11:49:28.316Z,86.73
2022-11-17T11:51:54.946Z,86.74
2022-11-17T11:54:50.433Z,83.83
2022-11-17T11:57:22.588Z,86.74
2022-11-17T12:00:06.245Z,86.68
2022-11-17T12:03:00.568Z,84.16
2022-11-17T12:05:56.163Z,86.33
2022-11-17T12:08:36.550Z,86.27
2022-11-17T12:11:26.404Z,85.89
2022-11-17T12:13:54.759Z,85.55
2022-11-17T12:16:33.370Z,83.73
2022-11-17T12:19:00.371Z,83.93
2022-11-17T12:21:28.757Z,84.85
2022-11-17T12:24:13.968Z,83.22
2022-11-17T12:26:41.230Z,85.90
2022-11-17T12:29:46.686Z,85.76
2022-11-17T12:32:47.765Z,84.83
2022-11-17T12:35:28.733Z,85.15
2022-11-17T12:38:21.333Z,85.68
2022-11-17T12:40:48.865Z,84.32
2022-11-17T12:43:27.764Z,85.85
2022-11-17T12:46:33.324Z,84.18
2022-11-17T12:49:16.063Z,85.36
2022-11-17T12:51:55.201Z,83.91
2022-11-17T12:54:47.923Z,85.03
2022-11-17T12:57:20.922Z,84.10
2022-11-17T13:00:02.781Z,85.61
2022-11-17T13:02:46.341Z,85.74
2022-11-17T13:05:19.905Z,85.65
2022-11-17T13:07:47.067Z,85.10
2022-11-17T13:10:32.965Z,84.54
2022-11-17T13:13:32.621Z,85.07
2022-11-17T13:16:01.649Z,84.30
2022-11-17T13:18:38.537Z,84.95
2022-11-17T13:21:17.462Z,84.50
2022-11-17T13:23:45.129Z,83.83
2022-11-17T13:26:38.066Z,84.59
2022-11-17T13:29:07.553Z,85.21
2022-11-17T13:31:34.852Z,83.59
2022-11-17T13:34:13.710Z,84.14
2022-11-17T13:36:59.989Z,84.15
2022-11-17T13:39:28.312Z,84.85
2022-11-17T13:41:56.635Z,83.99
2022-11-17T13:44:27.115Z,83.78
2022-11-17T13:46:53.709Z,84.63
2022-11-17T13:49:37.144Z,84.96
2022-11-17T13:52:05.475Z,83.47
2022-11-17T13:54:33.034Z,84.93
2022-11-17T13:57:07.043Z,85.13
2022-11-17T13:59:36.265Z,84.47
2022-11-17T14:02:24.765Z,85.30
2022-11-17T14:05:07.805Z,85.00
2022-11-17T14:07:37.171Z,84.87
2022-11-17T14:10:42.727Z,84.47
2022-11-17T14:13:18.127Z,83.22
2022-11-17T14:15:53.803Z,84.73
2022-11-17T14:18:30.114Z,85.10
2022-11-17T14:21:13.163Z,84.04
2022-11-17T14:23:56.924Z,84.87
2022-11-17T14:26:25.194Z,85.09
2022-11-17T14:28:52.768Z,84.78
2022-11-17T14:31:19.737Z,84.39
2022-11-17T14:33:46.843Z,84.44
2022-11-17T14:36:16.248Z,83.31
2022-11-17T14:38:46.640Z,83.48
2022-11-17T14:41:17.167Z,83.87
2022-11-17T14:43:44.054Z,84.65
2022-11-17T14:46:25.533Z,82.92
2022-11-17T14:48:53.107Z,84.46
2022-11-17T14:51:20.751Z,83.75
2022-11-17T14:53:47.847Z,83.46
2022-11-17T14:56:18.338Z,83.96
2022-11-17T14:58:46.761Z,83.65
2022-11-17T15:01:18.662Z,84.29
2022-11-17T15:03:46.120Z,83.20
2022-11-17T15:06:19.461Z,84.03
2022-11-17T15:08:47.243Z,84.13
2022-11-17T15:11:16.572Z,84.31
2022-11-17T15:13:43.743Z,82.67
2022-11-17T15:16:11.231Z,83.80
2022-11-17T15:18:38.350Z,81.62
2022-11-17T15:21:07.359Z,82.98
2022-11-17T15:23:37.171Z,83.56
2022-11-17T15:26:05.466Z,80.88
2022-11-17T15:28:32.184Z,82.34
2022-11-17T15:30:58.811Z,82.96
2022-11-17T15:33:25.653Z,80.84
2022-11-17T15:36:05.443Z,80.64
2022-11-17T15:38:32.993Z,82.50
2022-11-17T15:40:59.633Z,82.34
2022-11-17T15:43:36.835Z,82.03
2022-11-17T15:46:05.868Z,79.18
2022-11-17T15:48:40.239Z,80.30
2022-11-17T15:51:08.161Z,80.33
2022-11-17T15:53:37.033Z,77.47
2022-11-17T15:56:06.834Z,79.21
2022-11-17T15:58:33.678Z,80.30
2022-11-17T16:01:10.604Z,78.37
2022-11-17T16:03:37.321Z,81.42
2022-11-17T16:06:04.353Z,81.54
2022-11-17T16:08:32.141Z,80.65
2022-11-17T16:10:59.004Z,80.62
2022-11-17T16:13:25.548Z,81.16
2022-11-17T16:15:52.724Z,77.27
2022-11-17T16:18:19.885Z,81.06
2022-11-17T16:20:46.428Z,79.08
2022-11-17T16:23:14.270Z,79.02
2022-11-17T16:25:42.364Z,81.12
2022-11-17T16:28:08.965Z,79.56
2022-11-17T16:30:35.925Z,77.93
2022-11-17T16:33:04.129Z,78.72
2022-11-17T16:35:30.818Z,79.89
2022-11-17T16:37:57.407Z,79.76
2022-11-17T16:40:24.051Z,79.85
2022-11-17T16:42:50.675Z,80.06
2022-11-17T16:45:17.438Z,78.36
2022-11-17T16:47:44.269Z,79.48
2022-11-17T16:50:11.153Z,80.03
2022-11-17T16:52:37.689Z,79.65
2022-11-17T16:55:05.431Z,77.26
2022-11-17T16:57:32.285Z,77.51
2022-11-17T16:59:59.109Z,76.30
2022-11-17T17:02:26.075Z,79.21
2022-11-17T17:04:52.789Z,78.04
2022-11-17T17:07:19.386Z,78.83
2022-11-17T17:09:46.384Z,75.71
2022-11-17T17:12:13.031Z,78.38
2022-11-17T17:14:39.637Z,79.13
2022-11-17T17:17:06.181Z,79.28
2022-11-17T17:19:32.833Z,79.44
2022-11-17T17:21:59.593Z,79.15
2022-11-17T17:24:26.300Z,77.24
2022-11-17T17:26:52.853Z,78.81
2022-11-17T17:29:19.717Z,78.59
2022-11-17T17:31:46.611Z,75.41
2022-11-17T17:34:13.532Z,75.41
2022-11-17T17:36:40.260Z,75.77
2022-11-17T17:39:06.900Z,77.91
2022-11-17T17:41:40.098Z,78.85
2022-11-17T17:44:08.883Z,78.69
2022-11-17T17:46:38.529Z,76.78
2022-11-17T17:49:05.262Z,79.79
2022-11-17T17:51:31.964Z,79.76
2022-11-17T17:54:01.061Z,75.60
2022-11-17T17:56:31.423Z,79.35
2022-11-17T17:58:58.748Z,79.30
2022-11-17T18:01:33.452Z,77.59
2022-11-17T18:04:04.876Z,77.77
2022-11-17T18:06:37.408Z,78.96
2022-11-17T18:09:05.599Z,78.49
2022-11-17T18:11:32.343Z,74.50
2022-11-17T18:13:59.283Z,77.13
2022-11-17T18:16:28.859Z,77.55
2022-11-17T18:18:59.979Z,78.96
2022-11-17T18:21:28.906Z,78.72
2022-11-17T18:23:57.383Z,78.66
2022-11-17T18:26:33.926Z,78.11
2022-11-17T18:29:03.047Z,77.77
2022-11-17T18:31:31.992Z,75.80
2022-11-17T18:34:02.567Z,75.31
2022-11-17T18:36:29.689Z,77.51
2022-11-17T18:38:58.624Z,77.95
2022-11-17T18:41:26.814Z,76.72
2022-11-17T18:43:54.717Z,76.19
2022-11-17T18:46:23.473Z,77.38
2022-11-17T18:48:51.843Z,77.98
2022-11-17T18:51:21.580Z,77.60
2022-11-17T18:53:54.157Z,78.31
2022-11-17T18:56:23.102Z,79.09
2022-11-17T18:58:50.222Z,76.45
2022-11-17T19:01:21.894Z,76.95
2022-11-17T19:03:54.092Z,77.03
2022-11-17T19:06:23.128Z,76.47
2022-11-17T19:08:50.789Z,76.55
2022-11-17T19:11:19.791Z,77.80
2022-11-17T19:13:46.800Z,77.81
2022-11-17T19:16:16.582Z,78.55
2022-11-17T19:18:44.838Z,76.19
2022-11-17T19:21:14.498Z,76.96
2022-11-17T19:23:48.007Z,78.37
2022-11-17T19:26:21.469Z,77.17
2022-11-17T19:29:00.719Z,77.88
2022-11-17T19:31:28.253Z,77.43
2022-11-17T19:33:55.916Z,78.06
2022-11-17T19:36:29.362Z,75.85
2022-11-17T19:38:58.161Z,77.38
2022-11-17T19:41:26.053Z,77.63
2022-11-17T19:43:55.284Z,77.86
2022-11-17T19:46:22.736Z,77.62
2022-11-17T19:48:49.397Z,78.61
2022-11-17T19:51:18.421Z,77.09
2022-11-17T19:53:45.374Z,76.99
2022-11-17T19:56:12.427Z,76.65
2022-11-17T19:58:39.049Z,78.37
2022-11-17T20:01:18.962Z,77.62
2022-11-17T20:03:49.010Z,78.18
2022-11-17T20:06:18.110Z,76.60
2022-11-17T20:08:45.249Z,78.40
2022-11-17T20:11:17.200Z,77.63
2022-11-17T20:13:44.078Z,78.52
2022-11-17T20:16:14.588Z,77.29
2022-11-17T20:18:43.052Z,78.35
2022-11-17T20:21:10.624Z,77.97
2022-11-17T20:23:39.134Z,78.52
2022-11-17T20:26:08.036Z,78.81
2022-11-17T20:28:36.115Z,78.24
2022-11-17T20:31:12.527Z,77.59
2022-11-17T20:33:40.907Z,77.62
2022-11-17T20:36:08.957Z,77.67
2022-11-17T20:38:36.099Z,76.70
2022-11-17T20:41:03.554Z,78.14
2022-11-17T20:43:30.534Z,78.16
2022-11-17T20:45:58.344Z,78.04
2022-11-17T20:48:25.888Z,78.58
2022-11-17T20:51:06.403Z,76.59
2022-11-17T20:53:33.772Z,78.16
2022-11-17T20:56:02.377Z,78.23
2022-11-17T20:58:29.461Z,76.40
2022-11-17T21:00:56.677Z,78.01
2022-11-17T21:03:24.576Z,77.55
2022-11-17T21:05:59.605Z,76.12
2022-11-17T21:08:27.719Z,78.16
2022-11-17T21:10:58.893Z,77.33
2022-11-17T21:13:25.966Z,77.10
2022-11-17T21:16:13.411Z,77.25
2022-11-17T21:18:47.486Z,77.00
2022-11-17T21:21:14.593Z,77.19
2022-11-17T21:23:42.503Z,76.95
2022-11-17T21:26:10.962Z,77.19
2022-11-17T21:28:38.340Z,77.09
2022-11-17T21:31:07.846Z,76.93
2022-11-17T21:33:35.231Z,77.61
2022-11-17T21:36:04.067Z,77.96
2022-11-17T21:38:30.822Z,77.60
2022-11-17T21:41:09.957Z,77.53
2022-11-17T21:43:38.033Z,76.72
2022-11-17T21:46:09.928Z,77.06
2022-11-17T21:48:37.377Z,77.96
2022-11-17T21:51:05.013Z,79.00
2022-11-17T21:53:31.614Z,76.79
2022-11-17T21:56:02.601Z,76.43
2022-11-17T21:58:29.622Z,77.09
2022-11-17T22:00:56.487Z,77.14
2022-11-17T22:03:23.977Z,75.99
2022-11-17T22:05:52.409Z,75.85
2022-11-17T22:08:19.423Z,76.02
2022-11-17T22:10:46.016Z,75.98
2022-11-17T22:13:12.752Z,75.94
2022-11-17T22:15:39.259Z,74.84
2022-11-17T22:18:05.995Z,76.15
2022-11-17T22:20:32.514Z,78.47
2022-11-17T22:22:59.137Z,77.61
2022-11-17T22:25:44.122Z,76.25
2022-11-17T22:28:11.944Z,77.35
2022-11-17T22:30:39.373Z,75.81
2022-11-17T22:33:05.871Z,78.95
2022-11-17T22:35:32.515Z,76.48
2022-11-17T22:37:59.070Z,77.67
2022-11-17T22:40:25.678Z,79.30
2022-11-17T22:42:52.792Z,77.61
2022-11-17T22:45:19.564Z,79.37
2022-11-17T22:47:46.342Z,77.30
2022-11-17T22:50:13.195Z,77.96
2022-11-17T22:52:39.977Z,76.62
2022-11-17T22:55:06.841Z,76.71
2022-11-17T22:57:33.405Z,77.60
2022-11-17T22:59:59.935Z,78.39
2022-11-17T23:02:26.943Z,78.32
2022-11-17T23:04:53.849Z,77.28
2022-11-17T23:07:20.485Z,78.65
2022-11-17T23:09:47.090Z,78.20
2022-11-17T23:12:14.558Z,77.61
2022-11-17T23:14:41.537Z,77.93
2022-11-17T23:17:08.024Z,78.08
2022-11-17T23:19:34.676Z,77.42
2022-11-17T23:22:01.547Z,77.60
2022-11-17T23:24:28.176Z,76.86
2022-11-17T23:26:54.747Z,78.35
2022-11-17T23:29:21.290Z,78.20
2022-11-17T23:31:47.877Z,79.73
2022-11-17T23:34:14.718Z,79.00
2022-11-17T23:36:41.315Z,77.51
2022-11-17T23:39:08.221Z,77.79
2022-11-17T23:41:35.115Z,79.46
2022-11-17T23:44:01.661Z,78.10
2022-11-17T23:46:28.244Z,79.50
2022-11-17T23:48:57.108Z,78.45
2022-11-17T23:51:25.752Z,79.71
2022-11-17T23:53:53.151Z,81.68
2022-11-17T23:56:20.738Z,80.77
2022-11-17T23:58:51.481Z,80.01
